createdAt,value
2019-04-23T00:00:05.591Z,42.90
2019-04-23T00:02:53.610Z,43.50
2019-04-23T00:05:31.788Z,43.60
2019-04-23T00:10:30.343Z,44.40
2019-04-23T00:13:05.685Z,43.70
2019-04-23T00:15:54.611Z,44.10
2019-04-23T00:18:32.337Z,43.60
2019-04-23T00:21:11.509Z,44.60
2019-04-23T00:23:44.662Z,44.00
2019-04-23T00:26:25.176Z,44.30
2019-04-23T00:34:02.236Z,44.20
2019-04-23T00:39:08.228Z,44.40
2019-04-23T00:41:44.209Z,44.60
2019-04-23T00:44:22.861Z,44.00
2019-04-23T00:46:54.650Z,44.30
2019-04-23T00:49:36.531Z,44.40
2019-04-23T00:52:06.090Z,43.90
2019-04-23T00:54:39.445Z,43.90
2019-04-23T00:57:19.438Z,43.80
2019-04-23T00:59:53.725Z,44.20
2019-04-23T01:02:26.353Z,44.10
2019-04-23T01:05:04.785Z,44.60
2019-04-23T01:07:35.963Z,44.10
2019-04-23T01:10:13.997Z,44.00
2019-04-23T01:12:51.569Z,44.40
2019-04-23T01:18:15.943Z,44.50
2019-04-23T01:20:50.216Z,44.70
2019-04-23T01:23:28.548Z,43.70
2019-04-23T01:26:16.427Z,43.90
2019-04-23T01:29:03.308Z,44.00
2019-04-23T01:31:38.692Z,43.40
2019-04-23T01:34:04.133Z,43.60
2019-04-23T01:36:36.663Z,43.70
2019-04-23T01:39:21.117Z,44.20
2019-04-23T01:41:58.667Z,44.00
2019-04-23T01:44:34.081Z,44.30
2019-04-23T01:47:02.740Z,44.40
2019-04-23T01:49:48.434Z,44.00
2019-04-23T01:52:19.755Z,44.30
2019-04-23T01:54:50.122Z,44.80
2019-04-23T01:57:28.849Z,44.00
2019-04-23T02:00:03.408Z,43.70
2019-04-23T02:02:36.142Z,44.40
2019-04-23T02:05:09.835Z,44.50
2019-04-23T02:07:44.407Z,44.30
2019-04-23T02:10:20.525Z,44.20
2019-04-23T02:15:26.514Z,44.90
2019-04-23T02:17:58.024Z,44.60
2019-04-23T02:20:41.893Z,44.80
2019-04-23T02:23:24.933Z,44.90
2019-04-23T02:25:56.921Z,45.40
2019-04-23T02:28:38.830Z,45.70
2019-04-23T02:33:49.952Z,46.10
2019-04-23T02:36:34.913Z,46.40
2019-04-23T02:41:34.635Z,47.00
2019-04-23T02:46:43.556Z,47.20
2019-04-23T02:49:34.366Z,47.00
2019-04-23T02:51:59.399Z,47.20
2019-04-23T02:56:55.283Z,48.00
2019-04-23T02:59:55.683Z,48.70
2019-04-23T03:07:42.742Z,48.80
2019-04-23T03:12:54.199Z,48.70
2019-04-23T03:15:32.075Z,48.90
2019-04-23T03:24:11.058Z,49.40
2019-04-23T03:27:03.217Z,49.70
2019-04-23T03:37:17.046Z,50.50
2019-04-23T03:42:17.814Z,52.70
2019-04-23T03:47:26.766Z,52.10
2019-04-23T03:50:14.921Z,52.00
2019-04-23T03:52:34.868Z,52.20
2019-04-23T03:55:16.240Z,52.30
2019-04-23T03:57:54.096Z,52.30
2019-04-23T04:00:31.677Z,52.30
2019-04-23T04:02:56.371Z,52.70
2019-04-23T04:05:39.704Z,52.80
2019-04-23T04:08:10.298Z,52.60
2019-04-23T04:10:46.456Z,52.70
2019-04-23T04:13:19.303Z,53.00
2019-04-23T04:21:01.072Z,53.40
2019-04-23T04:23:33.783Z,53.40
2019-04-23T04:26:05.255Z,53.40
2019-04-23T04:28:47.228Z,52.90
2019-04-23T04:31:21.888Z,53.20
2019-04-23T04:38:59.137Z,52.10
2019-04-23T04:41:42.319Z,52.00
2019-04-23T04:44:28.990Z,52.80
2019-04-23T04:46:47.807Z,52.80
2019-04-23T04:49:23.790Z,52.90
2019-04-23T04:54:22.537Z,52.60
2019-04-23T04:57:16.247Z,52.10
2019-04-23T04:59:50.259Z,52.40
2019-04-23T05:02:37.842Z,52.30
2019-04-23T05:07:32.704Z,52.30
2019-04-23T05:15:07.232Z,52.50
2019-04-23T05:18:20.617Z,51.50
2019-04-23T05:20:42.989Z,51.30
2019-04-23T05:28:36.199Z,52.70
2019-04-23T05:31:02.228Z,52.70
2019-04-23T05:33:28.946Z,52.00
2019-04-23T05:36:22.842Z,51.40
2019-04-23T05:43:57.998Z,51.20
2019-04-23T05:46:36.677Z,51.80
2019-04-23T05:49:02.737Z,52.60
2019-04-23T05:51:42.004Z,52.30
2019-04-23T05:54:14.024Z,51.90
2019-04-23T05:56:43.790Z,52.90
2019-04-23T05:59:19.560Z,51.80
2019-04-23T06:04:32.571Z,51.40
2019-04-23T06:07:16.970Z,52.50
2019-04-23T06:09:41.185Z,52.30
2019-04-23T06:12:16.849Z,51.90
2019-04-23T06:14:55.833Z,51.90
2019-04-23T06:17:21.335Z,51.80
2019-04-23T06:20:05.834Z,51.20
2019-04-23T06:22:35.199Z,51.20
2019-04-23T06:25:12.608Z,52.00
2019-04-23T06:27:47.983Z,51.60
2019-04-23T06:30:41.921Z,51.20
2019-04-23T06:32:52.277Z,52.00
2019-04-23T06:35:29.434Z,51.00
2019-04-23T06:38:14.668Z,51.60
2019-04-23T06:40:42.277Z,51.20
2019-04-23T06:43:24.282Z,51.00
2019-04-23T06:45:57.503Z,51.30
2019-04-23T06:48:46.970Z,51.10
2019-04-23T06:51:15.398Z,51.40
2019-04-23T06:53:43.503Z,51.00
2019-04-23T06:56:21.218Z,50.20
2019-04-23T06:58:54.353Z,51.50
2019-04-23T07:01:27.860Z,49.30
2019-04-23T07:04:05.239Z,49.70
2019-04-23T07:07:13.690Z,49.30
2019-04-23T07:14:24.709Z,49.20
2019-04-23T07:16:55.928Z,48.00
2019-04-23T07:19:39.159Z,49.40
2019-04-23T07:22:13.032Z,49.10
2019-04-23T07:24:46.132Z,48.60
2019-04-23T07:27:22.838Z,48.20
2019-04-23T07:29:58.105Z,49.40
2019-04-23T07:32:43.381Z,47.80
2019-04-23T07:35:08.712Z,47.40
2019-04-23T07:37:43.089Z,49.40
2019-04-23T07:46:16.756Z,48.50
2019-04-23T07:48:41.899Z,48.20
2019-04-23T07:51:19.577Z,48.20
2019-04-23T07:54:06.033Z,49.00
2019-04-23T07:56:28.008Z,48.10
2019-04-23T07:59:08.853Z,47.50
2019-04-23T08:01:34.499Z,48.10
2019-04-23T08:04:18.209Z,46.80
2019-04-23T08:06:47.626Z,46.70
2019-04-23T08:09:24.077Z,46.10
2019-04-23T08:11:56.994Z,46.20
2019-04-23T08:14:33.042Z,46.50
2019-04-23T08:17:04.022Z,46.50
2019-04-23T08:19:52.749Z,46.60
2019-04-23T08:27:53.478Z,45.50
2019-04-23T08:30:24.055Z,46.50
2019-04-23T08:33:03.723Z,46.20
2019-04-23T08:35:36.171Z,43.90
2019-04-23T08:40:58.865Z,44.10
2019-04-23T08:46:05.846Z,43.50
2019-04-23T08:48:48.009Z,43.40
2019-04-23T08:51:31.511Z,43.50
2019-04-23T08:53:48.090Z,46.40
2019-04-23T08:56:38.553Z,46.00
2019-04-23T08:58:59.317Z,44.60
2019-04-23T09:01:43.585Z,45.80
2019-04-23T09:04:09.023Z,46.20
2019-04-23T09:06:50.085Z,47.30
2019-04-23T09:09:20.122Z,44.20
2019-04-23T09:12:07.027Z,44.40
2019-04-23T09:14:28.256Z,41.50
2019-04-23T09:17:09.815Z,39.60
2019-04-23T09:22:30.999Z,41.50
2019-04-23T09:24:47.203Z,42.90
2019-04-23T09:30:00.950Z,42.40
2019-04-23T09:32:43.468Z,39.60
2019-04-23T09:35:42.723Z,40.00
2019-04-23T09:38:38.209Z,40.90
2019-04-23T09:44:46.088Z,39.80
2019-04-23T09:47:24.556Z,41.50
2019-04-23T09:49:47.337Z,41.40
2019-04-23T09:55:04.656Z,42.50
2019-04-23T09:57:36.038Z,39.70
2019-04-23T10:00:18.770Z,38.70
2019-04-23T10:02:33.997Z,38.50
2019-04-23T10:05:04.449Z,38.20
2019-04-23T10:07:39.721Z,39.60
2019-04-23T10:10:01.626Z,40.10
2019-04-23T10:12:35.738Z,39.10
2019-04-23T10:15:17.993Z,38.20
2019-04-23T10:17:44.575Z,39.10
2019-04-23T10:20:20.564Z,38.20
2019-04-23T10:22:54.576Z,41.80
2019-04-23T10:25:27.934Z,37.90
2019-04-23T10:28:07.271Z,39.10
2019-04-23T10:30:38.832Z,37.90
2019-04-23T10:33:11.696Z,39.00
2019-04-23T10:35:53.112Z,37.10
2019-04-23T10:38:20.704Z,37.90
2019-04-23T10:40:54.196Z,37.00
2019-04-23T10:43:28.829Z,37.80
2019-04-23T10:46:43.344Z,37.50
2019-04-23T10:49:47.801Z,39.30
2019-04-23T10:52:19.719Z,38.10
2019-04-23T10:54:54.954Z,36.10
2019-04-23T10:59:53.597Z,35.80
2019-04-23T11:05:04.312Z,36.60
2019-04-23T11:07:47.112Z,35.70
2019-04-23T11:10:15.607Z,34.20
2019-04-23T11:13:08.272Z,33.70
2019-04-23T11:15:55.917Z,33.30
2019-04-23T11:18:07.177Z,33.80
2019-04-23T11:20:52.248Z,34.70
2019-04-23T11:23:22.517Z,34.80
2019-04-23T11:26:01.337Z,37.80
2019-04-23T11:28:45.085Z,36.00
2019-04-23T11:31:26.020Z,33.90
2019-04-23T11:36:48.201Z,34.40
2019-04-23T11:38:58.425Z,36.00
2019-04-23T11:41:41.945Z,36.50
2019-04-23T11:44:20.699Z,36.10
2019-04-23T11:52:08.332Z,34.90
2019-04-23T12:02:51.314Z,33.80
2019-04-23T12:05:45.810Z,33.20
2019-04-23T12:08:28.251Z,32.50
2019-04-23T12:11:36.148Z,32.30
2019-04-23T12:14:09.561Z,34.20
2019-04-23T12:16:49.195Z,32.20
2019-04-23T12:19:51.248Z,31.80
2019-04-23T12:21:58.991Z,31.80
2019-04-23T12:24:50.571Z,32.20
2019-04-23T12:32:44.669Z,32.60
2019-04-23T12:43:04.147Z,30.70
2019-04-23T12:45:33.930Z,31.00
2019-04-23T12:53:24.346Z,31.80
2019-04-23T12:55:43.665Z,32.70
2019-04-23T13:00:54.473Z,33.20
2019-04-23T13:03:34.418Z,33.50
2019-04-23T13:06:03.438Z,31.30
2019-04-23T13:08:44.297Z,31.10
2019-04-23T13:11:26.986Z,32.00
2019-04-23T13:13:58.853Z,30.30
2019-04-23T13:16:38.015Z,31.90
2019-04-23T13:19:14.694Z,32.10
2019-04-23T13:24:27.058Z,33.70
2019-04-23T13:27:02.491Z,32.50
2019-04-23T13:29:43.010Z,32.60
2019-04-23T13:32:15.242Z,34.40
2019-04-23T13:34:54.613Z,33.10
2019-04-23T13:37:33.634Z,31.70
2019-04-23T13:39:52.185Z,32.20
2019-04-23T13:42:45.224Z,31.20
2019-04-23T13:45:08.966Z,31.40
2019-04-23T13:47:47.220Z,31.60
2019-04-23T13:50:27.889Z,31.50
2019-04-23T13:55:22.644Z,31.20
2019-04-23T14:00:58.224Z,32.20
2019-04-23T14:03:13.305Z,32.50
2019-04-23T14:06:04.857Z,31.40
2019-04-23T14:11:14.034Z,31.10
2019-04-23T14:13:49.689Z,30.90
2019-04-23T14:21:34.501Z,30.90
2019-04-23T14:26:41.660Z,31.80
2019-04-23T14:29:04.354Z,31.60
2019-04-23T14:31:53.783Z,31.70
2019-04-23T14:34:45.470Z,31.60
2019-04-23T14:39:31.753Z,31.50
2019-04-23T14:42:21.431Z,30.90
2019-04-23T14:45:08.133Z,30.70
2019-04-23T14:47:27.919Z,30.70
2019-04-23T14:50:24.432Z,30.30
2019-04-23T14:52:49.838Z,31.30
2019-04-23T14:58:06.122Z,31.30
2019-04-23T15:08:14.931Z,31.60
2019-04-23T15:11:03.665Z,31.40
2019-04-23T15:13:23.185Z,32.30
2019-04-23T15:16:04.711Z,31.40
2019-04-23T15:19:02.652Z,33.00
2019-04-23T15:24:03.990Z,31.60
2019-04-23T15:28:52.370Z,32.60
2019-04-23T15:37:14.161Z,32.10
2019-04-23T15:42:14.477Z,31.70
2019-04-23T15:44:41.212Z,31.60
2019-04-23T15:47:19.606Z,31.60
2019-04-23T15:49:55.485Z,31.00
2019-04-23T15:52:29.799Z,31.00
2019-04-23T15:57:54.164Z,31.10
2019-04-23T16:00:07.204Z,31.20
2019-04-23T16:02:16.835Z,31.60
2019-04-23T16:04:51.207Z,32.40
2019-04-23T16:07:47.161Z,31.60
2019-04-23T16:10:47.587Z,31.60
2019-04-23T16:13:05.837Z,31.60
2019-04-23T16:21:26.562Z,33.60
2019-04-23T16:23:57.086Z,34.20
2019-04-23T16:26:23.091Z,34.60
2019-04-23T16:29:23.393Z,34.60
2019-04-23T16:31:47.087Z,34.80
2019-04-23T16:34:23.915Z,34.80
2019-04-23T16:37:15.486Z,35.20
2019-04-23T16:39:31.414Z,35.50
2019-04-23T16:42:17.675Z,35.60
2019-04-23T16:45:00.903Z,35.80
2019-04-23T16:50:06.448Z,35.90
2019-04-23T16:52:26.101Z,36.30
2019-04-23T16:55:12.907Z,35.90
2019-04-23T16:57:43.768Z,35.90
2019-04-23T17:00:22.889Z,36.10
2019-04-23T17:02:54.763Z,36.20
2019-04-23T17:05:31.069Z,36.20
2019-04-23T17:08:33.767Z,42.70
2019-04-23T17:10:38.719Z,42.10
2019-04-23T17:13:13.691Z,42.00
2019-04-23T17:16:00.235Z,45.30
2019-04-23T17:18:24.488Z,41.40
2019-04-23T17:20:56.012Z,39.30
2019-04-23T17:23:40.095Z,39.50
2019-04-23T17:28:35.578Z,39.50
2019-04-23T17:31:35.383Z,39.60
2019-04-23T17:36:38.542Z,40.70
2019-04-23T17:39:18.243Z,40.80
2019-04-23T17:45:17.108Z,40.10
2019-04-23T17:47:42.819Z,41.00
2019-04-23T17:53:03.036Z,39.80
2019-04-23T17:55:29.982Z,40.40
2019-04-23T17:58:10.397Z,40.40
2019-04-23T18:00:57.125Z,40.50
2019-04-23T18:03:22.377Z,40.70
2019-04-23T18:06:03.212Z,40.50
2019-04-23T18:08:27.111Z,40.70
2019-04-23T18:11:13.126Z,40.70
2019-04-23T18:13:45.712Z,41.80
2019-04-23T18:16:25.924Z,45.60
2019-04-23T18:21:56.588Z,47.80
2019-04-23T18:24:41.249Z,47.70
2019-04-23T18:27:11.870Z,47.40
2019-04-23T18:33:34.024Z,48.70
2019-04-23T18:35:29.416Z,49.30
2019-04-23T18:43:26.876Z,52.10
2019-04-23T18:46:00.792Z,52.20
2019-04-23T18:51:03.528Z,50.80
2019-04-23T19:01:32.982Z,53.40
2019-04-23T19:04:19.594Z,53.40
2019-04-23T19:07:15.999Z,53.60
2019-04-23T19:13:04.416Z,55.10
2019-04-23T19:18:04.513Z,55.40
2019-04-23T19:23:27.306Z,55.60
2019-04-23T19:25:51.426Z,54.50
2019-04-23T19:28:44.846Z,54.10
2019-04-23T19:34:02.883Z,56.80
2019-04-23T19:36:51.314Z,54.90
2019-04-23T19:39:21.817Z,54.80
2019-04-23T19:41:57.622Z,54.40
2019-04-23T19:44:25.411Z,54.50
2019-04-23T19:47:06.871Z,55.30
2019-04-23T19:49:32.735Z,54.50
2019-04-23T19:52:03.547Z,56.60
2019-04-23T19:54:52.572Z,57.40
2019-04-23T19:57:19.581Z,58.70
2019-04-23T20:02:38.625Z,58.30
2019-04-23T20:05:15.412Z,58.70
2019-04-23T20:10:04.285Z,59.60
2019-04-23T20:13:01.969Z,60.00
2019-04-23T20:15:13.523Z,60.50
2019-04-23T20:18:05.845Z,60.80
2019-04-23T20:20:39.848Z,60.60
2019-04-23T20:26:12.206Z,60.70
2019-04-23T20:31:36.472Z,60.90
2019-04-23T20:32:06.013Z,60.60
2019-04-23T20:34:02.939Z,59.80
2019-04-23T20:36:32.501Z,60.40
2019-04-23T20:39:09.280Z,60.40
2019-04-23T20:52:10.476Z,63.50
2019-04-23T20:54:59.994Z,64.20
2019-04-23T20:57:43.896Z,64.20
2019-04-23T21:00:04.798Z,63.90
2019-04-23T21:03:18.265Z,63.90
2019-04-23T21:05:22.800Z,63.60
2019-04-23T21:08:06.633Z,63.50
2019-04-23T21:10:40.522Z,62.30
2019-04-23T21:13:34.373Z,62.40
2019-04-23T21:15:54.349Z,62.40
2019-04-23T21:18:33.070Z,62.00
2019-04-23T21:20:56.068Z,62.00
2019-04-23T21:23:37.485Z,61.00
2019-04-23T21:26:02.002Z,60.70
2019-04-23T21:28:47.564Z,60.20
2019-04-23T21:34:04.231Z,59.80
2019-04-23T21:36:46.437Z,60.30
2019-04-23T21:40:20.894Z,60.30
2019-04-23T21:45:13.980Z,60.40
2019-04-23T21:48:02.992Z,60.40
2019-04-23T21:50:27.678Z,60.70
2019-04-23T21:53:04.472Z,61.10
2019-04-23T21:55:39.057Z,62.10
2019-04-23T22:00:55.007Z,60.50
2019-04-23T22:03:29.028Z,60.70
2019-04-23T22:06:00.332Z,60.20
2019-04-23T22:08:26.340Z,60.10
2019-04-23T22:11:24.218Z,59.10
2019-04-23T22:13:51.652Z,58.70
2019-04-23T22:16:14.662Z,58.50
2019-04-23T22:19:04.009Z,58.50
2019-04-23T22:21:36.158Z,57.60
2019-04-23T22:24:02.741Z,60.00
2019-04-23T22:29:13.836Z,58.60
2019-04-23T22:37:04.577Z,57.60
2019-04-23T22:39:31.637Z,57.40
2019-04-23T22:42:04.339Z,56.60
2019-04-23T22:44:56.162Z,57.00
2019-04-23T22:47:13.559Z,57.50
2019-04-23T22:52:32.256Z,57.60
2019-04-23T22:55:13.490Z,56.80
2019-04-23T22:57:56.639Z,57.40
2019-04-23T23:00:14.317Z,57.70
2019-04-23T23:08:20.420Z,57.10
2019-04-23T23:10:56.908Z,57.20
2019-04-23T23:13:42.241Z,57.90
2019-04-23T23:16:23.232Z,57.80
2019-04-23T23:18:40.365Z,58.10
2019-04-23T23:23:57.466Z,59.60
2019-04-23T23:29:04.426Z,59.60
2019-04-23T23:31:38.088Z,60.10
2019-04-23T23:36:54.944Z,60.60
2019-04-23T23:39:28.778Z,60.90
2019-04-23T23:41:58.903Z,61.30
2019-04-23T23:44:43.888Z,60.60
2019-04-23T23:47:07.322Z,60.00
2019-04-23T23:49:48.969Z,60.60
2019-04-23T23:52:11.037Z,60.10
2019-04-23T23:54:56.239Z,60.90
2019-04-23T23:57:24.712Z,60.60
